Crew | Aerofun Virtual



 METAR AND TAF INFORMATION
METAR FOR GMME
ADDS - METARS form results

(1149 UTC 20 October 2019)
Data provider http://aviationweather.gov/metar/data/
 
METAR text: GMME 201130Z 15006KT 8000 SCT026 OVC060 18/13 Q1016 NOSIG
Conditions at: GMME (RABAT/SALE (RMAF, MA) observed 1130 UTC 20 October 2019
Temperature: 18.0°C (64°F)
Dewpoint: 13.0°C (55°F) [RH = 73%]
Pressure (altimeter): 30.00 inches Hg (1016.0 mb)
Winds: from the SSE (150 degrees) at 7 MPH (6 knots; 3.1 m/s)
Visibility: 5 miles ( 8 km)
Ceiling: 6000 feet AGL
Clouds: scattered clouds at 2600 feet AGL
overcast cloud deck at 6000 feet AGL
Weather: no significant weather observed at this time

METAR text: GMME 201100Z 16007KT 8000 SCT026 OVC060 17/13 Q1016 NOSIG
Conditions at: GMME (RABAT/SALE (RMAF, MA) observed 1100 UTC 20 October 2019
Temperature: 17.0°C (63°F)
Dewpoint: 13.0°C (55°F) [RH = 77%]
Pressure (altimeter): 30.00 inches Hg (1016.0 mb)
Winds: from the SSE (160 degrees) at 8 MPH (7 knots; 3.6 m/s)
Visibility: 5 miles ( 8 km)
Ceiling: 6000 feet AGL
Clouds: scattered clouds at 2600 feet AGL
overcast cloud deck at 6000 feet AGL
Weather: no significant weather observed at this time

Forecast for: GMME (RABAT/SALE (RMAF, MA)
Text: TAF GMME 201100Z 2012/2118 VRB02KT 8000 SCT015 SCT026
Forecast period: 1200 UTC 20 October 2019 to 1800 UTC 21 October 2019
Forecast type: FROM: standard forecast or significant change
Winds: variable direction winds at 2 MPH (2 knots; 1.0 m/s)
Visibility: 5 miles (8 km)
Ceiling: at least 12,000 feet AGL
Clouds: scattered clouds at 1500 feet AGL
scattered clouds at 2600 feet AGL
Weather: no significant weather forecast for this period
Text: TEMPO 2100/2106 14006KT
Forecast period: 0000 to 0600 UTC 21 October 2019
Forecast type: TEMPORARY: The following changes expected for less than half the time period
Winds: from the SE (140 degrees) at 7 MPH (6 knots; 3.1 m/s)
Visibility: missing
Ceiling: unknown
Clouds: missing
Weather: no significant weather forecast for this period
Text: TEMPO 2108/2118 32008KT
Forecast period: 0800 to 1800 UTC 21 October 2019
Forecast type: TEMPORARY: The following changes expected for less than half the time period
Winds: from the NW (320 degrees) at 9 MPH (8 knots; 4.1 m/s)
Visibility: missing
Ceiling: unknown
Clouds: missing
Weather: no significant weather forecast for this period

 AIRPORT MAP

 RUNWAY INFORMATION
Runway 04 Runway length 11483 ft Runway width 148 ft
Runway elevation 273 ft Runway displaced threshold 0 ft Runway heading 31
Runway 22 Runway length 11483 ft Runway width 148 ft
Runway elevation 240 ft Runway displaced threshold 0 ft Runway heading 211

 AIRPORT FREQUENCIES
Type APP Name APP Frequency 118.9 MHZ
Type TWR Name TWR Frequency 118.3 MHZ

 AIRPORT NEAR NAVIGATION AIDS
Type VOR-DME Name Rabat Frequency 116500 KHZ
Type NDB Name Rabat Frequency 332 KHZ